M I D A S
Marine Information and Data Acquisition System
Tripno 1494 of the Zeeleeuw from 2008-05-28 06:27:09 to 2008-05-28 15:19:20
Back to CruiseResearch ActivitiesStationsMapUnderway DataData graphs

EquipmentUnitsComment
TimeDGPSUTC
LatitudeDGPSDM.mWGS84
LongitudeDGPSDM.mWGS84
HeadingGyrodeg 
SOGDGPSknotsSpeed over ground
COGDGPSdegCourse over ground
DepthEcho soundermeters200 kHz
Missing or incorrect values are displayed as -999
Navigation data collected by the RV Zeeleeuw from 2008-05-28 06:27:47 to 2008-05-28 15:23:53
                                                                                    Next 1000 lines
Time Latitude Longitude Heading SOG COG Depth
2008-05-28 06:27:57 51°13.623 2°56.047 112.9 0.8 286 9.4
2008-05-28 06:28:02 51°13.623 2°56.044 112.5 1.3 295 9.3
2008-05-28 06:28:07 51°13.624 2°56.041 112.5 1.7 292 9.4
2008-05-28 06:28:12 51°13.626 2°56.036 112.8 2.2 297 9.6
2008-05-28 06:28:17 51°13.627 2°56.031 113.4 2.5 295 -999
2008-05-28 06:28:22 51°13.629 2°56.026 114.4 2.8 298 -999
2008-05-28 06:28:27 51°13.631 2°56.019 114.8 3.1 297 -999
2008-05-28 06:28:32 51°13.633 2°56.013 114.8 3.4 299 -999
2008-05-28 06:28:38 51°13.636 2°56.004 114.6 3.7 297 -999
2008-05-28 06:28:43 51°13.639 2°55.996 114 3.9 297 -999
2008-05-28 06:28:47 51°13.641 2°55.989 113.7 4.1 296 -999
2008-05-28 06:28:52 51°13.643 2°55.981 113.4 4.2 296 -999
2008-05-28 06:28:58 51°13.646 2°55.97 113.3 4.4 295 -999
2008-05-28 06:29:03 51°13.649 2°55.961 113.3 4.5 295 -999
2008-05-28 06:29:07 51°13.651 2°55.954 113.8 4.7 295 -999
2008-05-28 06:29:12 51°13.654 2°55.944 114.4 4.8 296 -999
2008-05-28 06:29:17 51°13.657 2°55.934 114.5 4.9 295 -999
2008-05-28 06:29:23 51°13.66 2°55.923 113.9 4.9 296 -999
2008-05-28 06:29:27 51°13.662 2°55.915 112.9 4.9 295 -999
2008-05-28 06:29:32 51°13.665 2°55.905 111.6 5 295 -999
2008-05-28 06:29:37 51°13.668 2°55.895 110.4 5 294 -999
2008-05-28 06:29:42 51°13.671 2°55.884 109.2 5 294 -999
2008-05-28 06:29:48 51°13.674 2°55.872 108 5 292 -999
2008-05-28 06:29:53 51°13.677 2°55.862 106.6 5 291 -999
2008-05-28 06:29:57 51°13.679 2°55.854 105.7 4.9 290 -999
2008-05-28 06:30:02 51°13.68 2°55.844 104.3 4.7 289 -999
2008-05-28 06:30:07 51°13.683 2°55.834 103.1 4.6 287 -999
2008-05-28 06:30:13 51°13.684 2°55.823 101.5 4.4 285 -999
2008-05-28 06:30:17 51°13.686 2°55.815 99.2 4.3 284 -999
2008-05-28 06:30:22 51°13.687 2°55.807 97.1 4.1 282 -999
2008-05-28 06:30:27 51°13.688 2°55.798 95.5 3.9 281 -999
2008-05-28 06:30:33 51°13.688 2°55.789 92.9 3.7 280 -999
2008-05-28 06:30:38 51°13.689 2°55.781 91.1 3.6 278 -999
2008-05-28 06:30:42 51°13.69 2°55.775 89.2 3.4 278 -999
2008-05-28 06:30:47 51°13.69 2°55.768 87.7 3.2 275 13.3
2008-05-28 06:30:52 51°13.691 2°55.762 85.7 3 274 13.9
2008-05-28 06:30:58 51°13.691 2°55.755 83.9 2.8 272 13.9
2008-05-28 06:31:02 51°13.691 2°55.751 82.1 2.6 272 13.8
2008-05-28 06:31:07 51°13.691 2°55.746 79.9 2.3 270 13.7
2008-05-28 06:31:12 51°13.691 2°55.742 77.4 2 270 14.2
2008-05-28 06:31:17 51°13.691 2°55.739 74.7 1.7 268 14.6
2008-05-28 06:31:22 51°13.69 2°55.736 72 1.4 270 14.8
2008-05-28 06:31:27 51°13.69 2°55.734 69.1 1.1 271 14.8
2008-05-28 06:31:32 51°13.69 2°55.732 65.9 0.8 278 14.9
2008-05-28 06:31:37 51°13.691 2°55.73 62.1 0.6 294 14.6
2008-05-28 06:31:42 51°13.692 2°55.729 57.9 0.5 317 14.6
2008-05-28 06:31:47 51°13.692 2°55.729 53.6 0.5 344 14.7
2008-05-28 06:31:52 51°13.693 2°55.729 48.8 0.6 -999 14.6
2008-05-28 06:31:57 51°13.694 2°55.729 44 0.8 7 14.7
2008-05-28 06:32:02 51°13.696 2°55.729 38.9 1 10 14.7
2008-05-28 06:32:07 51°13.697 2°55.729 33.7 1.2 10 15
2008-05-28 06:32:12 51°13.699 2°55.73 28.5 1.4 8 15.5
2008-05-28 06:32:17 51°13.701 2°55.73 23.1 1.6 6 15.5
2008-05-28 06:32:22 51°13.704 2°55.73 17.9 1.9 2 15.3
2008-05-28 06:32:27 51°13.707 2°55.73 12.2 2.3 359 14.6
2008-05-28 06:32:32 51°13.711 2°55.729 6.3 2.8 355 14.4
2008-05-28 06:32:37 51°13.716 2°55.728 359.5 3.2 351 14.2
2008-05-28 06:32:42 51°13.72 2°55.726 353.1 3.4 345 13.9
2008-05-28 06:32:47 51°13.725 2°55.724 348 3.5 343 13.5
2008-05-28 06:32:52 51°13.73 2°55.721 344.7 3.8 340 12.9
2008-05-28 06:32:57 51°13.736 2°55.717 341.3 4.4 336 12.7
2008-05-28 06:33:02 51°13.742 2°55.712 337.4 4.9 335 12.6
2008-05-28 06:33:07 51°13.749 2°55.707 334.5 5.4 333 12.4
2008-05-28 06:33:12 51°13.756 2°55.701 332.9 5.8 332 12.3
2008-05-28 06:33:18 51°13.766 2°55.692 332.1 6.2 331 12.2
2008-05-28 06:33:23 51°13.774 2°55.685 331.8 6.6 331 12.3
2008-05-28 06:33:27 51°13.781 2°55.679 331.7 6.9 331 12.3
2008-05-28 06:33:32 51°13.789 2°55.671 331.2 7.2 331 12.3
2008-05-28 06:33:37 51°13.798 2°55.663 331 7.4 332 12.4
2008-05-28 06:33:43 51°13.809 2°55.654 332 7.6 334 12.3
2008-05-28 06:33:47 51°13.817 2°55.648 333.7 7.7 334 12.2
2008-05-28 06:33:52 51°13.826 2°55.64 333.9 7.9 334 12.1
2008-05-28 06:33:57 51°13.836 2°55.633 333.8 8 335 12.2
2008-05-28 06:34:02 51°13.847 2°55.626 334.5 8.1 337 12.4
2008-05-28 06:34:07 51°13.858 2°55.619 336.1 8.2 337 12.1
2008-05-28 06:34:12 51°13.868 2°55.612 336.8 8.3 337 12.5
2008-05-28 06:34:17 51°13.879 2°55.604 336.5 8.4 336 12.5
2008-05-28 06:34:22 51°13.89 2°55.597 336.2 8.5 337 12.5
2008-05-28 06:34:27 51°13.9 2°55.59 336.2 8.5 336 12.5
2008-05-28 06:34:32 51°13.911 2°55.582 336.2 8.6 336 12.5
2008-05-28 06:34:37 51°13.922 2°55.574 335.8 8.6 336 12.5
2008-05-28 06:34:42 51°13.933 2°55.567 335.5 8.6 337 12.5
2008-05-28 06:34:47 51°13.944 2°55.559 335.8 8.6 337 13
2008-05-28 06:34:52 51°13.955 2°55.552 336.2 8.7 338 12.5
2008-05-28 06:34:57 51°13.966 2°55.544 336.7 8.7 338 12.5
2008-05-28 06:35:02 51°13.977 2°55.537 337.3 8.7 338 12.5
2008-05-28 06:35:07 51°13.988 2°55.53 337.9 8.5 339 12.5
2008-05-28 06:35:12 51°13.999 2°55.523 338.2 8.1 338 12.5
2008-05-28 06:35:17 51°14.009 2°55.517 337.6 7.8 337 12.4
2008-05-28 06:35:22 51°14.018 2°55.51 336.6 7.4 336 12.4
2008-05-28 06:35:27 51°14.027 2°55.504 336 7.2 336 12.4
2008-05-28 06:35:32 51°14.036 2°55.497 335.4 7 335 12.4
2008-05-28 06:35:37 51°14.044 2°55.491 335.1 6.8 335 12.4
2008-05-28 06:35:42 51°14.053 2°55.485 334.5 6.6 334 12.5
2008-05-28 06:35:47 51°14.061 2°55.478 334 6.4 334 12.5
2008-05-28 06:35:52 51°14.069 2°55.472 333.6 6.3 334 12.5
2008-05-28 06:35:57 51°14.076 2°55.467 333.7 6.2 335 12.6
2008-05-28 06:36:03 51°14.085 2°55.46 334.4 6 334 12.5
2008-05-28 06:36:07 51°14.091 2°55.455 334.6 5.9 335 12.5
2008-05-28 06:36:12 51°14.098 2°55.449 334.8 5.9 335 12.5
2008-05-28 06:36:17 51°14.106 2°55.444 334.8 5.8 335 12.5
2008-05-28 06:36:23 51°14.114 2°55.438 334.9 5.7 335 12.5
2008-05-28 06:36:27 51°14.12 2°55.433 334.9 5.7 335 12.6
2008-05-28 06:36:32 51°14.127 2°55.428 335.2 5.7 336 -999
2008-05-28 06:36:37 51°14.134 2°55.423 335.5 5.6 335 -999
2008-05-28 06:36:42 51°14.141 2°55.418 335.5 5.6 336 12.5
2008-05-28 06:36:47 51°14.148 2°55.412 335.3 5.6 335 12.5
2008-05-28 06:36:52 51°14.155 2°55.407 335.1 5.6 335 12.6
2008-05-28 06:36:57 51°14.162 2°55.401 334.5 5.6 334 -999
2008-05-28 06:37:02 51°14.169 2°55.396 334.1 5.6 334 12.6
2008-05-28 06:37:07 51°14.176 2°55.39 333.8 5.6 334 12.6
2008-05-28 06:37:12 51°14.183 2°55.385 333.7 5.5 334 12.5
2008-05-28 06:37:18 51°14.191 2°55.378 333.5 5.6 334 12.7
2008-05-28 06:37:22 51°14.196 2°55.374 333.2 5.6 334 12.7
2008-05-28 06:37:27 51°14.204 2°55.368 333 5.7 332 12.6
2008-05-28 06:37:32 51°14.211 2°55.362 332.6 5.8 332 12.6
2008-05-28 06:37:37 51°14.218 2°55.356 331.3 5.8 329 12.6
2008-05-28 06:37:42 51°14.224 2°55.349 328.5 5.8 326 12.5
2008-05-28 06:37:47 51°14.231 2°55.341 324.7 5.8 324 12.1
2008-05-28 06:37:52 51°14.237 2°55.332 320.7 5.9 320 11.9
2008-05-28 06:37:57 51°14.244 2°55.324 317.1 5.9 319 12.2
2008-05-28 06:38:02 51°14.249 2°55.314 315.1 6 316 12.2
2008-05-28 06:38:07 51°14.256 2°55.305 314 6.2 315 12.6
2008-05-28 06:38:12 51°14.262 2°55.294 312.4 6.4 313 12.7
2008-05-28 06:38:17 51°14.267 2°55.284 310.5 6.5 311 12.6
2008-05-28 06:38:23 51°14.275 2°55.27 308.7 6.7 310 12.6
2008-05-28 06:38:27 51°14.279 2°55.261 308 6.8 309 12.8
2008-05-28 06:38:32 51°14.285 2°55.248 307 7.1 308 12.6
2008-05-28 06:38:37 51°14.291 2°55.235 305.9 7.3 307 12.6
2008-05-28 06:38:43 51°14.299 2°55.219 305.2 7.5 305 12.3
2008-05-28 06:38:47 51°14.303 2°55.208 303.9 7.7 305 -999
2008-05-28 06:38:52 51°14.31 2°55.193 303.4 7.9 304 -999
2008-05-28 06:38:57 51°14.316 2°55.178 302.7 8.1 303 -999
2008-05-28 06:39:02 51°14.322 2°55.163 302.2 8.4 303 -999
2008-05-28 06:39:08 51°14.33 2°55.143 302.1 8.6 303 -999
2008-05-28 06:39:13 51°14.336 2°55.127 302.5 8.7 303 -999
2008-05-28 06:39:17 51°14.342 2°55.114 302.5 9.1 303 12.5
2008-05-28 06:39:22 51°14.349 2°55.097 302 9.4 303 12.8
2008-05-28 06:39:27 51°14.357 2°55.079 301.8 9.7 305 13.4
2008-05-28 06:39:33 51°14.367 2°55.058 303.6 10 309 -999
2008-05-28 06:39:38 51°14.377 2°55.042 307.4 10.2 313 -999
2008-05-28 06:39:42 51°14.385 2°55.029 311.8 10.4 316 12.6
2008-05-28 06:39:47 51°14.396 2°55.013 313.5 10.7 317 12.9
2008-05-28 06:39:52 51°14.408 2°54.998 314.9 10.9 321 12.5
2008-05-28 06:39:58 51°14.424 2°54.981 316.6 11.2 325 12.6
2008-05-28 06:40:03 51°14.437 2°54.969 320.7 11.3 329 12.5
2008-05-28 06:40:07 51°14.448 2°54.958 323.5 11.5 330 12.8
2008-05-28 06:40:12 51°14.462 2°54.946 325.5 11.7 330 12.7
2008-05-28 06:40:18 51°14.48 2°54.93 325.9 11.8 331 12.7
2008-05-28 06:40:23 51°14.494 2°54.918 325.9 11.9 332 12.5
2008-05-28 06:40:27 51°14.506 2°54.908 325.9 12 332 12.3
2008-05-28 06:40:32 51°14.521 2°54.895 326.4 12.1 331 12.2
2008-05-28 06:40:37 51°14.536 2°54.881 325.5 12.3 331 12.2
2008-05-28 06:40:43 51°14.554 2°54.864 324.8 12.4 330 12
2008-05-28 06:40:47 51°14.566 2°54.854 324.1 12.4 330 11.8
2008-05-28 06:40:52 51°14.58 2°54.84 323.7 12.4 329 11.9
2008-05-28 06:40:57 51°14.595 2°54.825 323.5 12.5 329 12.1
2008-05-28 06:41:03 51°14.613 2°54.808 323.6 12.7 328 11.8
2008-05-28 06:41:07 51°14.625 2°54.796 322.7 12.6 328 11.7
2008-05-28 06:41:12 51°14.64 2°54.781 322.5 12.6 328 11.7
2008-05-28 06:41:17 51°14.655 2°54.766 322.3 12.6 328 11.8
2008-05-28 06:41:22 51°14.67 2°54.752 322.4 12.7 330 11.7
2008-05-28 06:41:27 51°14.685 2°54.738 323.6 12.7 330 11.6
2008-05-28 06:41:32 51°14.7 2°54.725 324.6 12.6 331 11.7
2008-05-28 06:41:37 51°14.716 2°54.712 325.9 12.7 332 11.7
2008-05-28 06:41:42 51°14.731 2°54.699 326.8 12.6 332 11.7
2008-05-28 06:41:47 51°14.747 2°54.686 327.1 12.7 333 11.8
2008-05-28 06:41:52 51°14.763 2°54.673 327.5 12.6 332 11.6
2008-05-28 06:41:57 51°14.778 2°54.66 327.2 12.5 332 11.6
2008-05-28 06:42:02 51°14.794 2°54.647 327 12.6 332 11.9
2008-05-28 06:42:07 51°14.809 2°54.635 326.7 12.4 333 11.5
2008-05-28 06:42:12 51°14.824 2°54.622 327 12.4 333 11.6
2008-05-28 06:42:17 51°14.84 2°54.61 327.3 12.5 334 11.5
2008-05-28 06:42:22 51°14.856 2°54.597 327.4 12.6 334 11.8
2008-05-28 06:42:27 51°14.871 2°54.585 327.7 12.7 335 11.7
2008-05-28 06:42:32 51°14.887 2°54.573 328.2 12.6 335 11.6
2008-05-28 06:42:37 51°14.903 2°54.561 328.5 12.7 335 11.5
2008-05-28 06:42:42 51°14.919 2°54.549 328.8 12.7 334 11.5
2008-05-28 06:42:47 51°14.934 2°54.537 328.1 12.5 333 11.3
2008-05-28 06:42:52 51°14.95 2°54.524 326.5 12.5 332 11.4
2008-05-28 06:42:57 51°14.965 2°54.511 325.8 12.4 332 11.2
2008-05-28 06:43:02 51°14.98 2°54.497 324.8 12.5 330 10.9
2008-05-28 06:43:07 51°14.995 2°54.484 323.7 12.5 331 10.9
2008-05-28 06:43:12 51°15.01 2°54.47 323.1 12.5 330 10.5
2008-05-28 06:43:17 51°15.025 2°54.456 323.1 12.5 330 10.8
2008-05-28 06:43:22 51°15.04 2°54.443 323.6 12.5 331 10.7
2008-05-28 06:43:27 51°15.055 2°54.43 324.4 12.4 331 10.7
2008-05-28 06:43:32 51°15.071 2°54.416 325.1 12.4 331 10.8
2008-05-28 06:43:37 51°15.086 2°54.403 325.4 12.3 331 11
2008-05-28 06:43:42 51°15.101 2°54.39 326 12.3 331 10.8
2008-05-28 06:43:47 51°15.116 2°54.377 326 12.4 331 10.7
2008-05-28 06:43:52 51°15.131 2°54.363 326 12.4 330 10.8
2008-05-28 06:43:57 51°15.146 2°54.349 324.9 12.4 330 10.8
2008-05-28 06:44:02 51°15.16 2°54.335 324.5 12.3 329 10.9
2008-05-28 06:44:07 51°15.175 2°54.32 324.1 12.4 328 11.1
2008-05-28 06:44:11 51°15.186 2°54.308 323.3 12.4 327 11
2008-05-28 06:44:17 51°15.204 2°54.291 323.1 12.4 328 10.9
2008-05-28 06:44:22 51°15.219 2°54.276 322.9 12.4 328 11.2
2008-05-28 06:44:27 51°15.233 2°54.262 323.2 12.4 328 11.2
2008-05-28 06:44:32 51°15.248 2°54.247 323.3 12.4 328 11.2
2008-05-28 06:44:37 51°15.263 2°54.233 323.6 12.5 329 11.4
2008-05-28 06:44:42 51°15.278 2°54.219 323.8 12.5 329 11.1
2008-05-28 06:44:47 51°15.292 2°54.204 324.1 12.6 329 11.2
2008-05-28 06:44:51 51°15.304 2°54.193 324.3 12.6 330 11.3
2008-05-28 06:44:56 51°15.319 2°54.179 324.4 12.6 329 11.4
2008-05-28 06:45:02 51°15.337 2°54.163 324.7 12.5 330 11.6
2008-05-28 06:45:07 51°15.352 2°54.149 324.5 12.4 330 11.6
2008-05-28 06:45:11 51°15.364 2°54.138 324.4 12.4 330 11.7
2008-05-28 06:45:17 51°15.382 2°54.121 324.5 12.5 331 11.8
2008-05-28 06:45:23 51°15.401 2°54.105 325.1 12.5 331 11.7
2008-05-28 06:45:28 51°15.416 2°54.092 325.7 12.6 331 11.8
2008-05-28 06:45:32 51°15.428 2°54.081 325.7 12.6 332 11.7
2008-05-28 06:45:37 51°15.443 2°54.068 326 12.5 332 11.6
2008-05-28 06:45:42 51°15.459 2°54.055 326.2 12.5 332 12
2008-05-28 06:45:48 51°15.477 2°54.04 326.3 12.5 332 12
2008-05-28 06:45:52 51°15.49 2°54.03 326.6 12.6 332 12.2
2008-05-28 06:45:57 51°15.505 2°54.017 326.9 12.5 332 12.2
2008-05-28 06:46:02 51°15.521 2°54.004 326.5 12.6 333 12.4
2008-05-28 06:46:08 51°15.539 2°53.988 326.8 12.6 333 12.3
2008-05-28 06:46:13 51°15.555 2°53.975 327.2 12.6 332 12.4
2008-05-28 06:46:17 51°15.567 2°53.965 326.8 12.6 331 12.5
2008-05-28 06:46:22 51°15.582 2°53.951 325.8 12.6 331 12.5
2008-05-28 06:46:28 51°15.6 2°53.934 325.3 12.5 329 12.2
2008-05-28 06:46:33 51°15.615 2°53.92 324.1 12.5 330 12.6
2008-05-28 06:46:37 51°15.627 2°53.909 323.8 12.4 329 12.5
2008-05-28 06:46:43 51°15.645 2°53.892 323.5 12.3 330 12.7
2008-05-28 06:46:48 51°15.66 2°53.877 323.9 12.4 329 12.8
2008-05-28 06:46:52 51°15.672 2°53.867 324.1 12.4 330 12.9
2008-05-28 06:46:57 51°15.687 2°53.853 324.1 12.4 330 12.7
2008-05-28 06:47:03 51°15.705 2°53.836 324.2 12.5 331 12.7
2008-05-28 06:47:08 51°15.72 2°53.823 324.2 12.6 331 12.8
2008-05-28 06:47:12 51°15.733 2°53.813 325.1 12.5 332 12.5
2008-05-28 06:47:17 51°15.748 2°53.8 325.4 12.5 332 12.9
2008-05-28 06:47:23 51°15.767 2°53.785 326.1 12.5 333 12.9
2008-05-28 06:47:28 51°15.782 2°53.772 326.7 12.4 333 12.9
2008-05-28 06:47:32 51°15.794 2°53.762 326.9 12.5 333 13.1
2008-05-28 06:47:37 51°15.81 2°53.749 327 12.5 333 13.1
2008-05-28 06:47:43 51°15.828 2°53.734 327.2 12.4 333 13.1
2008-05-28 06:47:48 51°15.843 2°53.721 326.8 12.5 333 13.1
2008-05-28 06:47:52 51°15.856 2°53.711 326.6 12.6 333 13.1
2008-05-28 06:47:57 51°15.871 2°53.698 326.8 12.5 331 13
2008-05-28 06:48:02 51°15.886 2°53.684 326.1 12.5 331 13.1
2008-05-28 06:48:08 51°15.904 2°53.668 325.5 12.4 330 13.2
2008-05-28 06:48:12 51°15.915 2°53.657 324.4 12.4 330 13.1
2008-05-28 06:48:17 51°15.93 2°53.643 324.1 12.4 329 13.4
2008-05-28 06:48:22 51°15.945 2°53.629 323.4 12.4 329 13.3
2008-05-28 06:48:28 51°15.963 2°53.612 323 12.4 329 13.3
2008-05-28 06:48:32 51°15.975 2°53.601 322.9 12.4 330 13.4
2008-05-28 06:48:37 51°15.989 2°53.587 323.4 12.5 329 13.4
2008-05-28 06:48:42 51°16.004 2°53.573 323.2 12.5 330 13.2
2008-05-28 06:48:48 51°16.022 2°53.556 323.5 12.4 329 13.2
2008-05-28 06:48:53 51°16.037 2°53.543 323.2 12.5 331 13.3
2008-05-28 06:48:57 51°16.049 2°53.531 323.9 12.4 329 13.3
2008-05-28 06:49:03 51°16.067 2°53.516 323.9 12.5 331 13.3
2008-05-28 06:49:08 51°16.082 2°53.502 324.2 12.5 330 13.3
2008-05-28 06:49:12 51°16.094 2°53.491 324.4 12.6 331 13.5
2008-05-28 06:49:17 51°16.109 2°53.477 324.5 12.5 330 13.4
2008-05-28 06:49:23 51°16.127 2°53.462 324.7 12.5 332 13.3
2008-05-28 06:49:28 51°16.142 2°53.448 325.1 12.4 331 13.3
2008-05-28 06:49:32 51°16.155 2°53.438 325 12.4 332 13.6
2008-05-28 06:49:37 51°16.17 2°53.425 325.5 12.5 332 13.7
2008-05-28 06:49:43 51°16.188 2°53.41 326.2 12.5 332 13.5
2008-05-28 06:49:48 51°16.204 2°53.397 326.5 12.5 332 13.5
2008-05-28 06:49:52 51°16.216 2°53.387 326.5 12.6 333 13.7
2008-05-28 06:49:57 51°16.232 2°53.374 326.6 12.5 332 13.5
2008-05-28 06:50:02 51°16.247 2°53.362 326.8 12.5 333 13.7
2008-05-28 06:50:08 51°16.265 2°53.346 327.2 12.5 332 13.8
2008-05-28 06:50:12 51°16.278 2°53.336 327.1 12.6 333 13.7
2008-05-28 06:50:17 51°16.293 2°53.323 327 12.6 332 13.7
2008-05-28 06:50:22 51°16.309 2°53.309 326.8 12.6 332 13.7
2008-05-28 06:50:28 51°16.327 2°53.294 326.8 12.6 332 13.7
2008-05-28 06:50:33 51°16.342 2°53.28 327.2 12.6 332 13.6
2008-05-28 06:50:37 51°16.355 2°53.27 327.2 12.6 332 13.6
2008-05-28 06:50:43 51°16.373 2°53.254 327.3 12.5 332 13.7
2008-05-28 06:50:48 51°16.389 2°53.241 327.3 12.5 332 13.8
2008-05-28 06:50:52 51°16.401 2°53.23 326.9 12.5 332 13.8
2008-05-28 06:50:57 51°16.416 2°53.216 326.6 12.6 330 13.8
2008-05-28 06:51:02 51°16.432 2°53.202 325.9 12.7 331 13.7
2008-05-28 06:51:08 51°16.45 2°53.185 325.3 12.7 330 13.7
2008-05-28 06:51:13 51°16.465 2°53.171 324.5 12.6 330 13.6
2008-05-28 06:51:17 51°16.477 2°53.16 324.1 12.6 329 13.7
2008-05-28 06:51:23 51°16.495 2°53.143 323.7 12.6 329 13.8
2008-05-28 06:51:28 51°16.51 2°53.129 323.5 12.6 329 13.7
2008-05-28 06:51:32 51°16.522 2°53.117 323.2 12.5 329 13.6
2008-05-28 06:51:37 51°16.537 2°53.103 323.1 12.5 329 13.9
2008-05-28 06:51:43 51°16.555 2°53.086 323.4 12.5 330 13.7
2008-05-28 06:51:48 51°16.57 2°53.072 323.3 12.5 329 13.6
2008-05-28 06:51:52 51°16.582 2°53.061 323.4 12.7 330 13.8
2008-05-28 06:51:57 51°16.597 2°53.047 323.7 12.6 330 13.4
2008-05-28 06:52:03 51°16.615 2°53.031 323.8 12.5 331 13.3
2008-05-28 06:52:08 51°16.631 2°53.018 324.4 12.5 331 13.6
2008-05-28 06:52:12 51°16.643 2°53.007 325.1 12.6 332 13.5
2008-05-28 06:52:17 51°16.659 2°52.994 325.7 12.7 331 13.4
2008-05-28 06:52:22 51°16.674 2°52.98 325.7 12.7 331 13.4
2008-05-28 06:52:28 51°16.693 2°52.965 325.2 12.7 332 13.3
2008-05-28 06:52:32 51°16.705 2°52.954 325.9 12.7 332 13.3
2008-05-28 06:52:37 51°16.721 2°52.941 326.2 12.7 332 13.2
2008-05-28 06:52:42 51°16.737 2°52.928 326.1 12.8 333 13.1
2008-05-28 06:52:48 51°16.756 2°52.913 326.7 12.7 333 12.6
2008-05-28 06:52:53 51°16.771 2°52.9 327 12.5 333 12.9
2008-05-28 06:52:57 51°16.784 2°52.89 326.9 12.6 333 12.2
2008-05-28 06:53:02 51°16.799 2°52.877 326.9 12.6 332 12
2008-05-28 06:53:08 51°16.818 2°52.861 327 12.6 332 11.5
2008-05-28 06:53:13 51°16.834 2°52.849 326.2 12.7 333 11.5
2008-05-28 06:53:17 51°16.846 2°52.839 326.4 12.7 333 11.4
2008-05-28 06:53:23 51°16.865 2°52.823 326.6 12.8 333 11.1
2008-05-28 06:53:28 51°16.881 2°52.81 326.8 12.9 333 11.4
2008-05-28 06:53:32 51°16.894 2°52.8 327.2 12.8 333 11
2008-05-28 06:53:37 51°16.909 2°52.787 327 12.8 333 11.1
2008-05-28 06:53:42 51°16.925 2°52.774 326.9 12.8 333 11.3
2008-05-28 06:53:48 51°16.944 2°52.759 327 12.8 333 11.4
2008-05-28 06:53:52 51°16.957 2°52.748 327 12.9 333 11.5
2008-05-28 06:53:57 51°16.972 2°52.735 326.8 12.9 332 11.6
2008-05-28 06:54:03 51°16.992 2°52.72 326.2 12.9 334 11.8
2008-05-28 06:54:08 51°17.008 2°52.707 327.3 12.9 335 11.8
2008-05-28 06:54:12 51°17.021 2°52.698 328.4 12.9 334 12.1
2008-05-28 06:54:17 51°17.037 2°52.685 328.5 13 335 12.2
2008-05-28 06:54:23 51°17.056 2°52.671 329.3 12.9 335 11.9
2008-05-28 06:54:28 51°17.073 2°52.659 329.5 12.8 335 11.9
2008-05-28 06:54:32 51°17.085 2°52.65 329.8 12.9 335 11.8
2008-05-28 06:54:37 51°17.102 2°52.638 330.1 12.9 335 11.6
2008-05-28 06:54:43 51°17.121 2°52.624 330.2 12.9 336 11.6
2008-05-28 06:54:48 51°17.137 2°52.613 330.1 12.8 336 11.4
2008-05-28 06:54:52 51°17.15 2°52.603 330.4 12.7 336 11.4
2008-05-28 06:54:57 51°17.166 2°52.591 330.5 12.6 335 11.4
2008-05-28 06:55:02 51°17.182 2°52.58 330.2 12.8 335 11.7
2008-05-28 06:55:07 51°17.198 2°52.567 330.2 12.7 335 11.7
2008-05-28 06:55:12 51°17.214 2°52.556 330.1 12.7 335 11.9
2008-05-28 06:55:17 51°17.23 2°52.543 330.1 12.8 334 12
2008-05-28 06:55:22 51°17.247 2°52.533 329.9 12.9 338 11.9
2008-05-28 06:55:28 51°17.267 2°52.52 332 12.9 338 12
2008-05-28 06:55:33 51°17.284 2°52.51 333.3 13 340 11.9
2008-05-28 06:55:37 51°17.297 2°52.502 334.4 13 340 12.1
2008-05-28 06:55:43 51°17.318 2°52.491 335.3 13 341 12.2
2008-05-28 06:55:48 51°17.335 2°52.482 336.4 13 341 12.1
2008-05-28 06:55:53 51°17.352 2°52.473 336.8 13 342 12.3
2008-05-28 06:55:57 51°17.365 2°52.466 337.8 13 342 12.3
2008-05-28 06:56:03 51°17.386 2°52.456 338.6 13 342 12.3
2008-05-28 06:56:08 51°17.403 2°52.447 338.6 12.9 342 12.1
2008-05-28 06:56:12 51°17.417 2°52.441 338.3 12.9 344 12.2
2008-05-28 06:56:17 51°17.434 2°52.434 339.6 12.8 345 12.4
2008-05-28 06:56:23 51°17.455 2°52.425 340.9 12.9 345 12.5
2008-05-28 06:56:28 51°17.472 2°52.418 341.1 12.9 345 12.3
2008-05-28 06:56:32 51°17.486 2°52.412 341.8 12.9 345 12.2
2008-05-28 06:56:37 51°17.503 2°52.404 341.7 12.9 345 12.3
2008-05-28 06:56:43 51°17.524 2°52.396 341.4 12.8 346 12.5
2008-05-28 06:56:48 51°17.541 2°52.389 342.4 12.9 346 12.6
2008-05-28 06:56:52 51°17.555 2°52.385 342.9 12.8 348 12.3
2008-05-28 06:56:57 51°17.573 2°52.379 344 12.9 349 12.3
2008-05-28 06:57:03 51°17.594 2°52.372 345.1 13 349 12.3
2008-05-28 06:57:08 51°17.612 2°52.368 345.6 13 351 12.2
2008-05-28 06:57:13 51°17.629 2°52.363 346.6 12.9 350 12.4
2008-05-28 06:57:17 51°17.644 2°52.359 347 13 350 12.6
2008-05-28 06:57:22 51°17.661 2°52.354 347.1 13.1 350 12.5
2008-05-28 06:57:28 51°17.683 2°52.348 347.3 13.1 350 12.2
2008-05-28 06:57:32 51°17.697 2°52.344 346.9 12.9 350 12.3
2008-05-28 06:57:37 51°17.715 2°52.339 347.1 12.9 349 12.7
2008-05-28 06:57:42 51°17.732 2°52.333 346.3 12.9 349 12.4
2008-05-28 06:57:48 51°17.754 2°52.326 345.4 13 349 12.5
2008-05-28 06:57:53 51°17.771 2°52.321 345.2 12.9 348 12.2
2008-05-28 06:57:57 51°17.785 2°52.316 344.9 12.9 349 12.3
2008-05-28 06:58:02 51°17.802 2°52.31 344.9 12.9 348 12.3
2008-05-28 06:58:08 51°17.823 2°52.304 344.8 12.9 350 12.4
2008-05-28 06:58:12 51°17.838 2°52.3 345.7 13 350 12.4
2008-05-28 06:58:17 51°17.856 2°52.296 346.4 13 351 12.6
2008-05-28 06:58:23 51°17.877 2°52.291 347.4 13.1 352 12.5
2008-05-28 06:58:28 51°17.895 2°52.288 348.4 12.9 353 12.3
2008-05-28 06:58:32 51°17.909 2°52.286 349.6 13 355 12.4
2008-05-28 06:58:38 51°17.931 2°52.283 351.2 13 355 12.3
2008-05-28 06:58:43 51°17.949 2°52.281 351.9 13 356 12.6
2008-05-28 06:58:48 51°17.967 2°52.28 352.5 13.1 357 12.6
2008-05-28 06:58:52 51°17.982 2°52.278 353.4 13.1 356 12.6
2008-05-28 06:58:57 51°18 2°52.278 353.4 13.2 359 12.6
2008-05-28 06:59:03 51°18.022 2°52.277 354.6 13.2 359 12.6
2008-05-28 06:59:08 51°18.04 2°52.277 355.4 13.2 -999 12.4
2008-05-28 06:59:12 51°18.054 2°52.277 356.2 13.2 359 12.4
2008-05-28 06:59:17 51°18.073 2°52.276 356.3 13.1 359 12.5
2008-05-28 06:59:22 51°18.091 2°52.276 356 13.2 -999 12.4
2008-05-28 06:59:28 51°18.113 2°52.275 356.4 13.2 -999 12.6
2008-05-28 06:59:32 51°18.128 2°52.275 356.7 13.3 -999 12.6
2008-05-28 06:59:37 51°18.146 2°52.275 356.8 13.2 -999 12.8
2008-05-28 06:59:42 51°18.165 2°52.276 357.2 13.3 1 13
2008-05-28 06:59:48 51°18.186 2°52.277 358 13.3 2 12.8
2008-05-28 06:59:53 51°18.204 2°52.278 358.8 13 2 12.7
2008-05-28 06:59:57 51°18.219 2°52.28 359.4 13.1 3 12.9
2008-05-28 07:00:03 51°18.241 2°52.281 0.2 13.1 2 12.9
2008-05-28 07:00:08 51°18.259 2°52.282 359.9 13.1 2 13
2008-05-28 07:00:12 51°18.273 2°52.282 359.7 13 -999 13.1
2008-05-28 07:00:17 51°18.292 2°52.283 358.5 13.1 2 13.1
2008-05-28 07:00:22 51°18.31 2°52.283 358.6 13 -999 13
2008-05-28 07:00:28 51°18.331 2°52.283 358.5 13.1 -999 13.1
2008-05-28 07:00:32 51°18.346 2°52.283 357.7 13.1 359 13.1
2008-05-28 07:00:37 51°18.364 2°52.282 357.1 13.1 -999 13
2008-05-28 07:00:43 51°18.385 2°52.283 357 13 1 12.9
2008-05-28 07:00:48 51°18.403 2°52.284 358.1 12.9 2 13
2008-05-28 07:00:52 51°18.417 2°52.284 359.2 12.9 2 13.1
2008-05-28 07:00:57 51°18.435 2°52.286 359.9 13 3 13.2
2008-05-28 07:01:03 51°18.457 2°52.288 0.9 13 3 13.3
2008-05-28 07:01:08 51°18.475 2°52.289 1 13 2 13.3
2008-05-28 07:01:12 51°18.49 2°52.291 0.6 13.1 4 13.5
2008-05-28 07:01:17 51°18.508 2°52.293 1.3 13.1 4 13.4
2008-05-28 07:01:23 51°18.529 2°52.295 1.9 13 5 13.3
2008-05-28 07:01:28 51°18.547 2°52.297 2.4 12.9 4 13.6
2008-05-28 07:01:32 51°18.562 2°52.299 2.4 13 5 13.7
2008-05-28 07:01:37 51°18.58 2°52.301 2.4 13.1 3 13.7
2008-05-28 07:01:42 51°18.598 2°52.303 1.8 13.1 4 13.7
2008-05-28 07:01:48 51°18.62 2°52.304 1.5 13 2 13.6
2008-05-28 07:01:52 51°18.634 2°52.305 0.6 13 2 13.9
2008-05-28 07:01:57 51°18.652 2°52.305 0.2 13 1 13.9
2008-05-28 07:02:02 51°18.67 2°52.305 359.5 13 1 14
2008-05-28 07:02:08 51°18.692 2°52.306 359.1 13 1 14.1
2008-05-28 07:02:13 51°18.71 2°52.307 359.2 13.1 1 14
2008-05-28 07:02:17 51°18.725 2°52.308 359.3 13 2 14
2008-05-28 07:02:23 51°18.747 2°52.309 359.9 13.1 3 14.3
2008-05-28 07:02:28 51°18.765 2°52.311 0.7 13.1 2 14.2
2008-05-28 07:02:32 51°18.78 2°52.313 0.6 13.3 4 14.3
2008-05-28 07:02:37 51°18.798 2°52.314 1.3 13 3 14.1
2008-05-28 07:02:43 51°18.819 2°52.316 1.7 13 4 14.5
2008-05-28 07:02:48 51°18.837 2°52.318 2 13 3 14.6
2008-05-28 07:02:52 51°18.852 2°52.32 1.7 13.1 4 14.6
2008-05-28 07:02:57 51°18.87 2°52.321 1.7 13 4 14.7
2008-05-28 07:03:03 51°18.892 2°52.324 1.9 13.1 4 15
2008-05-28 07:03:08 51°18.91 2°52.326 2.1 13.1 4 14.8
2008-05-28 07:03:12 51°18.924 2°52.328 2 13.1 3 14.9
2008-05-28 07:03:17 51°18.942 2°52.328 1.4 13.1 2 14.9
2008-05-28 07:03:23 51°18.964 2°52.329 0.6 13.2 2 15.1
2008-05-28 07:03:28 51°18.983 2°52.33 -999 13.2 1 15.2
2008-05-28 07:03:32 51°18.997 2°52.331 359.5 13.2 1 15.2
2008-05-28 07:03:37 51°19.016 2°52.331 359.2 13.2 1 15.3
2008-05-28 07:03:43 51°19.037 2°52.331 358.7 13.1 1 15.2
2008-05-28 07:03:48 51°19.056 2°52.332 359 13.2 -999 15.5
2008-05-28 07:03:52 51°19.07 2°52.332 358.8 13.1 1 15.5
2008-05-28 07:03:57 51°19.088 2°52.333 359 13.2 2 15.7
2008-05-28 07:04:02 51°19.107 2°52.334 0.1 13.2 2 15.9
2008-05-28 07:04:08 51°19.129 2°52.336 0.6 13.3 3 15.9
2008-05-28 07:04:12 51°19.143 2°52.337 1.1 13.2 3 15.8
2008-05-28 07:04:17 51°19.162 2°52.338 1.1 13.2 2 16.2
2008-05-28 07:04:22 51°19.18 2°52.339 0.9 13.2 2 16.1
2008-05-28 07:04:28 51°19.202 2°52.34 0.1 13.3 2 16.3
2008-05-28 07:04:33 51°19.221 2°52.34 359.7 13.2 1 16.4
2008-05-28 07:04:37 51°19.235 2°52.34 359.4 13.2 1 16.3
2008-05-28 07:04:42 51°19.254 2°52.341 359.2 13.3 2 16.5
2008-05-28 07:04:48 51°19.276 2°52.342 359.4 13.3 2 16.5
2008-05-28 07:04:53 51°19.294 2°52.344 359.9 13.4 2 16.5
2008-05-28 07:04:57 51°19.309 2°52.345 0.4 13.4 4 16.6
2008-05-28 07:05:03 51°19.331 2°52.347 1 13.4 3 16.6
2008-05-28 07:05:08 51°19.35 2°52.35 1.5 13.5 5 16.8
2008-05-28 07:05:12 51°19.365 2°52.352 2.6 13.5 4 16.8
2008-05-28 07:05:18 51°19.387 2°52.355 2.9 13.4 6 16.8
2008-05-28 07:05:23 51°19.405 2°52.358 3.3 13.4 5 17.1
2008-05-28 07:05:28 51°19.424 2°52.361 3.5 13.3 6 17
2008-05-28 07:05:32 51°19.438 2°52.363 3.5 13.3 6 17
2008-05-28 07:05:37 51°19.457 2°52.366 3.8 13.4 6 17
2008-05-28 07:05:43 51°19.479 2°52.369 3.9 13.4 6 17
2008-05-28 07:05:48 51°19.497 2°52.373 3.9 13.3 6 17.2
2008-05-28 07:05:52 51°19.512 2°52.375 4 13.2 5 17.4
2008-05-28 07:05:57 51°19.53 2°52.377 3.7 13.3 4 17.4
2008-05-28 07:06:02 51°19.549 2°52.379 2.7 13.4 5 17.3
2008-05-28 07:06:08 51°19.571 2°52.381 2.2 13.4 3 17.2
2008-05-28 07:06:12 51°19.586 2°52.383 1.6 13.4 4 17.2
2008-05-28 07:06:17 51°19.605 2°52.385 1.7 13.5 4 17.3
2008-05-28 07:06:22 51°19.623 2°52.387 1.7 13.4 3 17.4
2008-05-28 07:06:28 51°19.646 2°52.389 1.3 13.5 4 17.6
2008-05-28 07:06:33 51°19.664 2°52.39 1.2 13.4 2 17.3
2008-05-28 07:06:37 51°19.679 2°52.392 0.5 13.4 4 17.5
2008-05-28 07:06:43 51°19.701 2°52.394 0.6 13.4 3 17.6
2008-05-28 07:06:48 51°19.72 2°52.396 0.7 13.4 4 17.5
2008-05-28 07:06:52 51°19.735 2°52.397 1 13.4 3 17.7
2008-05-28 07:06:57 51°19.753 2°52.398 0.9 13.5 3 17.6
2008-05-28 07:07:02 51°19.772 2°52.401 0.6 13.5 5 17.6
2008-05-28 07:07:08 51°19.794 2°52.403 1.6 13.4 4 17.6
2008-05-28 07:07:13 51°19.812 2°52.406 2.1 13.3 6 17.8
2008-05-28 07:07:17 51°19.827 2°52.409 2.8 13.3 6 17.8
2008-05-28 07:07:23 51°19.85 2°52.413 3.5 13.3 7 17.9
2008-05-28 07:07:28 51°19.868 2°52.417 4.3 13.4 7 17.9
2008-05-28 07:07:32 51°19.883 2°52.419 4.7 13.4 6 18
2008-05-28 07:07:37 51°19.902 2°52.423 4.4 13.6 7 18
2008-05-28 07:07:43 51°19.924 2°52.427 4.6 13.4 6 17.7
2008-05-28 07:07:48 51°19.942 2°52.43 4.3 13.4 6 17.9
2008-05-28 07:07:52 51°19.957 2°52.432 3.7 13.5 5 18
2008-05-28 07:07:57 51°19.976 2°52.435 3.4 13.5 6 18
2008-05-28 07:08:02 51°19.994 2°52.439 3.8 13.5 7 17.9
2008-05-28 07:08:07 51°20.013 2°52.443 4.6 13.5 8 18.1
2008-05-28 07:08:12 51°20.031 2°52.447 5.2 13.5 7 18
2008-05-28 07:08:16 51°20.046 2°52.45 5.7 13.6 8 18
2008-05-28 07:08:21 51°20.065 2°52.454 6 13.4 8 18
2008-05-28 07:08:26 51°20.083 2°52.46 6.6 13.5 10 18.1
2008-05-28 07:08:31 51°20.102 2°52.465 7.9 13.6 10 18.1
2008-05-28 07:08:36 51°20.12 2°52.471 8.6 13.4 11 18.1
2008-05-28 07:08:40 51°20.134 2°52.475 9.6 13.3 10 18.1
2008-05-28 07:08:45 51°20.153 2°52.481 9.5 13.5 11 18
2008-05-28 07:08:50 51°20.171 2°52.487 10.1 13.5 12 18.1
2008-05-28 07:08:54 51°20.185 2°52.492 10.1 13.4 11 18
2008-05-28 07:08:59 51°20.204 2°52.497 9.9 13.3 11 18
2008-05-28 07:09:04 51°20.221 2°52.503 9.7 13.2 11 17.8
2008-05-28 07:09:09 51°20.24 2°52.509 9.7 13.3 11 17.8
2008-05-28 07:09:14 51°20.258 2°52.514 9.9 13.3 10 17.8
2008-05-28 07:09:19 51°20.276 2°52.519 9.2 13.3 10 17.7
2008-05-28 07:09:24 51°20.294 2°52.524 9 13.4 10 17.9
2008-05-28 07:09:29 51°20.313 2°52.53 9.5 13.4 11 18
2008-05-28 07:09:34 51°20.331 2°52.535 9.5 13.3 10 17.9
2008-05-28 07:09:39 51°20.349 2°52.541 9.8 13.2 11 18
2008-05-28 07:09:44 51°20.367 2°52.546 10 13.3 10 17.7
2008-05-28 07:09:49 51°20.385 2°52.552 9.8 13.2 11 17.7
2008-05-28 07:09:54 51°20.403 2°52.557 10.2 13.2 11 17.6
2008-05-28 07:09:59 51°20.421 2°52.564 10.6 13.3 12 17.8
2008-05-28 07:10:04 51°20.439 2°52.57 11.2 13.2 12 17.8
2008-05-28 07:10:09 51°20.457 2°52.576 11.5 13.3 13 17.7
2008-05-28 07:10:14 51°20.475 2°52.582 11.4 13.4 12 17.6
2008-05-28 07:10:19 51°20.493 2°52.588 11 13.3 12 17.7
2008-05-28 07:10:24 51°20.511 2°52.594 10.6 13.2 11 17.7
2008-05-28 07:10:29 51°20.529 2°52.6 10.7 13 11 17.3
2008-05-28 07:10:34 51°20.547 2°52.605 10.7 13.1 10 17.3
2008-05-28 07:10:39 51°20.565 2°52.61 9.8 13 9 17
2008-05-28 07:10:44 51°20.583 2°52.614 8 13 8 17.3
2008-05-28 07:10:49 51°20.601 2°52.618 7.6 13.1 8 17.4
2008-05-28 07:10:54 51°20.619 2°52.621 6.7 13 6 17.1
2008-05-28 07:10:59 51°20.637 2°52.625 5.9 13.1 7 17.2
2008-05-28 07:11:04 51°20.655 2°52.628 5.1 13.1 6 17.4
2008-05-28 07:11:09 51°20.673 2°52.631 4.5 13.1 6 17
2008-05-28 07:11:14 51°20.691 2°52.633 4.6 13.1 5 17.3
2008-05-28 07:11:19 51°20.71 2°52.636 3.9 13.2 5 17.1
2008-05-28 07:11:24 51°20.728 2°52.639 3.7 13.2 6 17
2008-05-28 07:11:29 51°20.746 2°52.641 3.8 13.3 5 16.9
2008-05-28 07:11:34 51°20.765 2°52.644 3.3 13.3 5 16.9
2008-05-28 07:11:39 51°20.783 2°52.646 3.5 13.3 5 16.8
2008-05-28 07:11:44 51°20.801 2°52.649 3.7 13.2 5 16.7
2008-05-28 07:11:49 51°20.819 2°52.652 4.3 13.1 7 16.3
2008-05-28 07:11:54 51°20.837 2°52.656 5 13 7 16.2
2008-05-28 07:11:59 51°20.855 2°52.66 5.5 13.2 8 16.5
2008-05-28 07:12:04 51°20.873 2°52.663 6.1 13.1 6 16.3
2008-05-28 07:12:09 51°20.891 2°52.666 6 13.2 7 16.2
2008-05-28 07:12:14 51°20.909 2°52.669 5.1 13.1 6 16.5
2008-05-28 07:12:19 51°20.927 2°52.672 4.9 13.1 5 16.4
2008-05-28 07:12:24 51°20.946 2°52.674 4.2 13.1 5 16.5
2008-05-28 07:12:29 51°20.964 2°52.676 2.9 13.1 4 16.5
2008-05-28 07:12:34 51°20.982 2°52.678 2.2 13.1 4 16.7
2008-05-28 07:12:40 51°21.003 2°52.679 1.7 13.1 2 16.6
2008-05-28 07:12:44 51°21.018 2°52.68 1.3 13 2 16.4
2008-05-28 07:12:49 51°21.036 2°52.681 0.5 13 2 16.4
2008-05-28 07:12:54 51°21.054 2°52.682 0.5 13.1 2 16.5
2008-05-28 07:12:59 51°21.072 2°52.683 0.6 13.1 2 16.7
2008-05-28 07:13:04 51°21.09 2°52.685 1.1 13 4 16.5
2008-05-28 07:13:09 51°21.108 2°52.687 2.1 13.1 4 16.8
2008-05-28 07:13:14 51°21.126 2°52.689 2.4 13.2 4 16.9
2008-05-28 07:13:19 51°21.145 2°52.692 2.8 13.2 5 17
2008-05-28 07:13:24 51°21.163 2°52.694 3.3 13.1 5 17
2008-05-28 07:13:29 51°21.181 2°52.696 3.5 13.2 5 17.3
2008-05-28 07:13:34 51°21.199 2°52.699 3.5 13.2 5 18
2008-05-28 07:13:39 51°21.218 2°52.701 3.5 13.1 4 18.2
2008-05-28 07:13:44 51°21.236 2°52.703 2.5 13.2 4 18.3
2008-05-28 07:13:49 51°21.254 2°52.705 2.3 13.1 3 18.4
2008-05-28 07:13:54 51°21.272 2°52.707 2.3 13.2 4 18.6
2008-05-28 07:13:59 51°21.291 2°52.709 2.4 13.3 4 18.8
2008-05-28 07:14:04 51°21.309 2°52.711 2.8 13.3 4 18.8
2008-05-28 07:14:09 51°21.327 2°52.714 3.2 13.3 5 18.8
2008-05-28 07:14:14 51°21.346 2°52.716 3.5 13.3 5 19
2008-05-28 07:14:19 51°21.364 2°52.719 3.6 13.3 5 19
2008-05-28 07:14:24 51°21.382 2°52.721 3.5 13.2 5 19.1
2008-05-28 07:14:29 51°21.401 2°52.723 3.5 13.1 5 18.9
2008-05-28 07:14:34 51°21.419 2°52.726 3.3 13.2 5 19
2008-05-28 07:14:39 51°21.437 2°52.729 3.6 13.3 6 19.3
2008-05-28 07:14:44 51°21.455 2°52.731 3.5 13.2 4 19.6
2008-05-28 07:14:49 51°21.474 2°52.733 2.6 13.2 4 19.6
2008-05-28 07:14:54 51°21.492 2°52.734 2.2 13.2 3 19.6
2008-05-28 07:14:59 51°21.51 2°52.736 1.4 13.2 4 19.7
2008-05-28 07:15:04 51°21.528 2°52.738 1.4 13.2 4 19.8
2008-05-28 07:15:09 51°21.546 2°52.739 1.4 13.2 3 19.7
2008-05-28 07:15:14 51°21.565 2°52.741 1.1 13.2 3 20.1
2008-05-28 07:15:20 51°21.587 2°52.743 0.7 13.2 3 20.1
2008-05-28 07:15:24 51°21.602 2°52.744 0.4 13.2 3 20.3
2008-05-28 07:15:29 51°21.62 2°52.746 0.6 13.3 3 20.5
2008-05-28 07:15:34 51°21.638 2°52.747 0.7 13.3 3 20.8
2008-05-28 07:15:39 51°21.657 2°52.749 1 13.3 4 20.9
2008-05-28 07:15:44 51°21.675 2°52.752 2.1 13.4 4 21.1
2008-05-28 07:15:49 51°21.693 2°52.754 1.7 13.2 4 21.2
2008-05-28 07:15:54 51°21.712 2°52.756 1.9 13.3 5 21.3
2008-05-28 07:15:59 51°21.73 2°52.759 2.2 13.3 5 21.5
2008-05-28 07:16:04 51°21.749 2°52.762 2.8 13.3 5 21.6
2008-05-28 07:16:09 51°21.767 2°52.764 3 13.2 5 21.6
2008-05-28 07:16:14 51°21.786 2°52.767 2.9 13.3 5 21.7
2008-05-28 07:16:19 51°21.804 2°52.769 2.4 13.3 5 22.3
2008-05-28 07:16:24 51°21.822 2°52.772 2.1 13.3 5 22.4
2008-05-28 07:16:29 51°21.841 2°52.774 2.1 13.3 5 22.5
2008-05-28 07:16:34 51°21.859 2°52.776 1.9 13.3 4 22.8
2008-05-28 07:16:39 51°21.877 2°52.777 1.6 13.4 4 23.1
2008-05-28 07:16:44 51°21.896 2°52.779 1 13.3 4 23.5
2008-05-28 07:16:49 51°21.914 2°52.78 0.8 13.3 3 23.6
2008-05-28 07:16:54 51°21.933 2°52.782 0.6 13.3 3 24
2008-05-28 07:16:59 51°21.952 2°52.785 1.3 13.4 4 24.2
2008-05-28 07:17:04 51°21.97 2°52.787 1.7 13.4 5 24.3
2008-05-28 07:17:09 51°21.989 2°52.79 2.6 13.4 5 24.2
2008-05-28 07:17:14 51°22.007 2°52.793 3.3 13.4 6 24.4
2008-05-28 07:17:19 51°22.026 2°52.796 3.4 13.4 6 24.7
2008-05-28 07:17:24 51°22.044 2°52.798 2.8 13.5 4 24.9
2008-05-28 07:17:29 51°22.063 2°52.801 2.4 13.5 5 24.9
2008-05-28 07:17:34 51°22.081 2°52.804 2.8 13.3 5 25
2008-05-28 07:17:40 51°22.104 2°52.806 3.2 13.3 5 25.1
2008-05-28 07:17:44 51°22.119 2°52.808 2.5 13.4 5 25.3
2008-05-28 07:17:49 51°22.137 2°52.81 2.4 13.4 4 25.6
2008-05-28 07:17:54 51°22.156 2°52.813 2.5 13.4 5 25.5
2008-05-28 07:17:59 51°22.174 2°52.815 2.1 13.3 4 25.6
2008-05-28 07:18:04 51°22.192 2°52.817 1.7 13.3 4 25.7
2008-05-28 07:18:09 51°22.211 2°52.819 1.3 13.4 4 25.3
2008-05-28 07:18:14 51°22.229 2°52.821 1.5 13.4 4 25.7
2008-05-28 07:18:19 51°22.248 2°52.824 1.4 13.5 4 25.8
2008-05-28 07:18:24 51°22.266 2°52.826 1.8 13.3 4 25.2
2008-05-28 07:18:29 51°22.284 2°52.828 1.8 13.3 4 25.8
2008-05-28 07:18:34 51°22.302 2°52.831 1.6 13.3 5 25.2
2008-05-28 07:18:39 51°22.321 2°52.833 1.4 13.3 4 25.5
2008-05-28 07:18:44 51°22.339 2°52.835 1.3 13.3 5 25.5
2008-05-28 07:18:49 51°22.358 2°52.837 1.4 13.4 4 25.4
2008-05-28 07:18:54 51°22.376 2°52.839 1.4 13.4 4 25
2008-05-28 07:18:59 51°22.395 2°52.841 1.4 13.5 4 25.2
2008-05-28 07:19:04 51°22.413 2°52.844 2.1 13.4 5 24.7
2008-05-28 07:19:09 51°22.432 2°52.846 2 13.4 4 24.6
2008-05-28 07:19:14 51°22.45 2°52.848 2.1 13.4 5 24.5
2008-05-28 07:19:19 51°22.469 2°52.851 2 13.6 4 24.5
2008-05-28 07:19:24 51°22.488 2°52.853 2.2 13.4 5 24.5
2008-05-28 07:19:29 51°22.506 2°52.856 2.7 13.3 5 24.5
2008-05-28 07:19:34 51°22.524 2°52.859 2.8 13.2 6 24.1
2008-05-28 07:19:40 51°22.546 2°52.863 3.3 13.3 6 24.4
2008-05-28 07:19:44 51°22.561 2°52.865 2.8 13.4 5 24.3
2008-05-28 07:19:49 51°22.58 2°52.868 3.1 13.5 6 24.5
2008-05-28 07:19:54 51°22.598 2°52.87 3.2 13.5 5 24.1
2008-05-28 07:19:59 51°22.617 2°52.873 2.7 13.6 6 24.2
2008-05-28 07:20:04 51°22.636 2°52.875 2.3 13.5 5 24.3
2008-05-28 07:20:09 51°22.654 2°52.878 2.8 13.6 6 24
2008-05-28 07:20:14 51°22.673 2°52.881 3.1 13.5 5 24.5
2008-05-28 07:20:19 51°22.692 2°52.884 3.1 13.5 6 24
2008-05-28 07:20:24 51°22.71 2°52.887 3.3 13.5 6 24.2
2008-05-28 07:20:29 51°22.729 2°52.89 3.6 13.5 5 24.3
2008-05-28 07:20:34 51°22.748 2°52.893 3.3 13.4 6 24.3
2008-05-28 07:20:39 51°22.766 2°52.896 2.9 13.4 5 24.3
2008-05-28 07:20:44 51°22.785 2°52.898 2.9 13.5 5 24.3
2008-05-28 07:20:49 51°22.804 2°52.901 2.1 13.6 5 24.2
2008-05-28 07:20:54 51°22.822 2°52.903 2.3 13.3 5 24.2
2008-05-28 07:20:59 51°22.84 2°52.905 2.5 13.3 5 23.8
2008-05-28 07:21:04 51°22.859 2°52.908 2.3 13.3 5 23.3
2008-05-28 07:21:09 51°22.877 2°52.911 2.8 13.4 6 22.4
2008-05-28 07:21:14 51°22.896 2°52.914 3.2 13.5 6 24.7
2008-05-28 07:21:19 51°22.915 2°52.917 2.8 13.4 5 24.7
2008-05-28 07:21:24 51°22.933 2°52.919 2.2 13.5 4 24.7
2008-05-28 07:21:29 51°22.952 2°52.922 1.6 13.4 4 24.6
2008-05-28 07:21:34 51°22.97 2°52.923 1.4 13.3 4 24.3
2008-05-28 07:21:39 51°22.989 2°52.926 1.3 13.4 4 24.7
2008-05-28 07:21:44 51°23.007 2°52.928 1.8 13.3 5 24.3
2008-05-28 07:21:49 51°23.025 2°52.93 2.2 13.3 5 23.9
2008-05-28 07:21:54 51°23.044 2°52.934 2.4 13.3 6 23.3
2008-05-28 07:21:59 51°23.062 2°52.937 2.8 13.3 6 22.9
2008-05-28 07:22:04 51°23.081 2°52.94 3.1 13.4 5 23.5
2008-05-28 07:22:09 51°23.1 2°52.943 2.9 13.4 6 24.6
2008-05-28 07:22:14 51°23.118 2°52.946 3.1 13.5 6 24.6
2008-05-28 07:22:19 51°23.137 2°52.948 3.2 13.4 5 23.8
2008-05-28 07:22:24 51°23.156 2°52.951 2.8 13.5 5 23.3
2008-05-28 07:22:29 51°23.174 2°52.954 2.7 13.5 5 22.9
2008-05-28 07:22:34 51°23.193 2°52.956 2.2 13.5 4 23
2008-05-28 07:22:39 51°23.212 2°52.958 1.9 13.5 5 23
2008-05-28 07:22:44 51°23.23 2°52.96 2.1 13.5 4 22.7
2008-05-28 07:22:49 51°23.249 2°52.962 1.7 13.5 4 22.5
2008-05-28 07:22:54 51°23.268 2°52.964 1.3 13.6 4 22.5
2008-05-28 07:22:59 51°23.286 2°52.966 0.7 13.4 3 22.4
2008-05-28 07:23:04 51°23.305 2°52.968 0.4 13.6 4 22.4
2008-05-28 07:23:09 51°23.324 2°52.97 0.5 13.5 4 22.5
2008-05-28 07:23:14 51°23.342 2°52.972 0.8 13.4 4 22.3
2008-05-28 07:23:19 51°23.361 2°52.975 1.6 13.4 5 22.1
2008-05-28 07:23:24 51°23.379 2°52.977 2 13.5 4 22
2008-05-28 07:23:29 51°23.398 2°52.98 2.2 13.5 6 22.1
2008-05-28 07:23:34 51°23.417 2°52.982 2.8 13.6 5 22.2
2008-05-28 07:23:39 51°23.436 2°52.985 3 13.6 6 22.5
2008-05-28 07:23:44 51°23.454 2°52.988 3.5 13.7 6 22.5
2008-05-28 07:23:49 51°23.473 2°52.992 4.3 13.7 6 22.6
2008-05-28 07:23:54 51°23.492 2°52.996 4.6 13.8 7 22.7
2008-05-28 07:23:59 51°23.511 2°52.999 5 13.7 7 22.9
2008-05-28 07:24:04 51°23.529 2°53.004 5.4 13.5 8 22.7
2008-05-28 07:24:09 51°23.548 2°53.008 5.7 13.4 7 22.1
2008-05-28 07:24:14 51°23.566 2°53.011 5.2 13.5 7 23.1
2008-05-28 07:24:20 51°23.589 2°53.015 5.1 13.5 7 23.2
2008-05-28 07:24:24 51°23.604 2°53.018 4.3 13.6 6 23.3
2008-05-28 07:24:29 51°23.622 2°53.021 3.8 13.6 6 22.1
2008-05-28 07:24:34 51°23.641 2°53.023 3.4 13.6 6 23.3
2008-05-28 07:24:39 51°23.66 2°53.026 2.9 13.5 5 23.3
2008-05-28 07:24:44 51°23.679 2°53.029 2.6 13.6 5 23.5
2008-05-28 07:24:49 51°23.697 2°53.031 2.5 13.5 4 23.3
2008-05-28 07:24:54 51°23.716 2°53.033 2.2 13.5 5 23.3
2008-05-28 07:24:59 51°23.735 2°53.036 2.1 13.6 4 21.6
2008-05-28 07:25:04 51°23.754 2°53.039 2.2 13.6 6 22
2008-05-28 07:25:09 51°23.772 2°53.041 3.2 13.6 5 22.4
2008-05-28 07:25:14 51°23.791 2°53.044 3 13.6 5 22.1
2008-05-28 07:25:19 51°23.81 2°53.047 2.8 13.6 6 22.3
2008-05-28 07:25:24 51°23.829 2°53.05 3.6 13.6 6 20.6
2008-05-28 07:25:29 51°23.848 2°53.053 4 13.6 7 21.2
2008-05-28 07:25:34 51°23.867 2°53.057 4.3 13.6 7 21.4
2008-05-28 07:25:39 51°23.886 2°53.06 4.8 13.7 7 20.8
2008-05-28 07:25:44 51°23.905 2°53.064 5 13.7 7 21
2008-05-28 07:25:49 51°23.923 2°53.068 5 13.6 7 20.6
2008-05-28 07:25:54 51°23.942 2°53.072 5 13.7 7 20.9
2008-05-28 07:25:59 51°23.961 2°53.075 5.2 13.7 6 19.6
2008-05-28 07:26:04 51°23.98 2°53.079 4.8 13.6 7 19
2008-05-28 07:26:09 51°23.999 2°53.082 4.5 13.5 6 19.5
2008-05-28 07:26:14 51°24.017 2°53.085 4.3 13.5 6 19.5
2008-05-28 07:26:20 51°24.04 2°53.088 4 13.6 5 19.9
2008-05-28 07:26:24 51°24.055 2°53.09 3.3 13.5 5 18.7
2008-05-28 07:26:29 51°24.073 2°53.093 2.8 13.5 5 19.1
2008-05-28 07:26:34 51°24.092 2°53.096 2.9 13.6 5 19.4
2008-05-28 07:26:39 51°24.111 2°53.098 2.8 13.7 4 19.7
2008-05-28 07:26:44 51°24.13 2°53.1 2.7 13.7 5 19.8
2008-05-28 07:26:49 51°24.149 2°53.103 2.5 13.6 5 19.8
2008-05-28 07:26:54 51°24.168 2°53.105 2.4 13.5 4 19.7
2008-05-28 07:26:59 51°24.186 2°53.107 2.2 13.4 5 19.8
2008-05-28 07:27:04 51°24.204 2°53.11 2.6 13.4 5 20.4
2008-05-28 07:27:09 51°24.223 2°53.113 2.8 13.4 5 21.4
2008-05-28 07:27:14 51°24.242 2°53.116 3.5 13.4 6 19.5
2008-05-28 07:27:19 51°24.26 2°53.119 4 13.3 6 18.1
2008-05-28 07:27:24 51°24.279 2°53.122 3.9 13.4 6 16.6
2008-05-28 07:27:29 51°24.297 2°53.125 4.3 13.4 6 18.3
2008-05-28 07:27:34 51°24.316 2°53.128 4.3 13.5 6 19.3
2008-05-28 07:27:39 51°24.334 2°53.131 4.5 13.5 6 20
2008-05-28 07:27:44 51°24.353 2°53.134 4.4 13.5 6 20.5
2008-05-28 07:27:49 51°24.372 2°53.137 4.4 13.6 6 20.1
2008-05-28 07:27:54 51°24.391 2°53.139 4 13.6 5 17.8
2008-05-28 07:27:59 51°24.409 2°53.142 3.5 13.4 5 18.5
2008-05-28 07:28:04 51°24.428 2°53.145 3.8 13.5 6 19
2008-05-28 07:28:09 51°24.447 2°53.148 4.3 13.5 6 19.2
2008-05-28 07:28:14 51°24.465 2°53.151 4.3 13.5 6 20
2008-05-28 07:28:19 51°24.484 2°53.154 4.7 13.5 6 20.4
2008-05-28 07:28:24 51°24.503 2°53.158 4.9 13.6 7 19.8
2008-05-28 07:28:29 51°24.521 2°53.16 5.1 13.6 5 20
2008-05-28 07:28:34 51°24.54 2°53.163 4.7 13.6 5 19.8
2008-05-28 07:28:39 51°24.559 2°53.166 4.2 13.5 5 19.7
2008-05-28 07:28:44 51°24.577 2°53.168 3.4 13.4 4 20.3
2008-05-28 07:28:49 51°24.596 2°53.17 3 13.4 3 21
2008-05-28 07:28:54 51°24.614 2°53.171 2.4 13.4 3 21.5
2008-05-28 07:29:00 51°24.636 2°53.172 1.8 13.2 2 21.7
2008-05-28 07:29:04 51°24.651 2°53.174 1.1 13.2 3 21.6
2008-05-28 07:29:09 51°24.669 2°53.175 1.4 13.3 2 21.5
2008-05-28 07:29:14 51°24.688 2°53.177 1.4 13.3 3 21.4
2008-05-28 07:29:19 51°24.706 2°53.178 1.7 13.2 2 21
2008-05-28 07:29:24 51°24.724 2°53.179 1.6 13.1 3 19.7
2008-05-28 07:29:29 51°24.742 2°53.181 1.4 13.1 3 18
2008-05-28 07:29:34 51°24.761 2°53.183 1.6 13.1 4 19
2008-05-28 07:29:39 51°24.779 2°53.184 2.1 13.1 3 19.2
2008-05-28 07:29:44 51°24.797 2°53.186 1.9 13.2 3 19.6
2008-05-28 07:29:49 51°24.815 2°53.187 1.4 13.2 3 20.4
2008-05-28 07:29:54 51°24.834 2°53.189 1.3 13.2 3 20.2
2008-05-28 07:29:59 51°24.852 2°53.191 1.8 13.2 4 20.2
2008-05-28 07:30:04 51°24.87 2°53.192 1.9 13.3 3 20.5
2008-05-28 07:30:09 51°24.889 2°53.193 1.7 13.3 3 20.7
2008-05-28 07:30:14 51°24.907 2°53.195 1.4 13.4 3 20.5
2008-05-28 07:30:19 51°24.926 2°53.197 2.2 13.4 3 20.2
2008-05-28 07:30:24 51°24.944 2°53.199 2.2 13.4 4 19.9
2008-05-28 07:30:29 51°24.963 2°53.201 2 13.3 3 19.3
2008-05-28 07:30:34 51°24.981 2°53.202 1.4 13.3 2 20.3
2008-05-28 07:30:39 51°25 2°53.203 0.8 13.4 2 21
2008-05-28 07:30:44 51°25.018 2°53.203 0.2 13.4 2 21.8
2008-05-28 07:30:49 51°25.037 2°53.204 359.8 13.3 1 22.3
2008-05-28 07:30:54 51°25.055 2°53.204 359.7 13.3 1 22.6
2008-05-28 07:31:00 51°25.077 2°53.204 359.4 13.3 -999 23.1
2008-05-28 07:31:04 51°25.092 2°53.205 359.1 13.4 1 23.1
2008-05-28 07:31:09 51°25.11 2°53.205 359.1 13.2 -999 23.4
2008-05-28 07:31:14 51°25.128 2°53.205 359.2 13.2 1 23.3
2008-05-28 07:31:19 51°25.147 2°53.206 359.2 13.2 1 23.4
2008-05-28 07:31:24 51°25.165 2°53.207 359.7 13.2 2 23.5
2008-05-28 07:31:29 51°25.183 2°53.208 0.4 13.2 2 23.7
2008-05-28 07:31:34 51°25.202 2°53.209 0.8 13.3 3 23.8
2008-05-28 07:31:39 51°25.22 2°53.211 1.6 13.2 3 24.1
2008-05-28 07:31:44 51°25.238 2°53.213 2 13.2 4 24.5
2008-05-28 07:31:49 51°25.257 2°53.215 2.8 13.2 5 24.1
2008-05-28 07:31:54 51°25.275 2°53.218 3.7 13.2 6 24.3
2008-05-28 07:31:59 51°25.293 2°53.221 4 13.3 5 24.5
2008-05-28 07:32:04 51°25.312 2°53.224 3.9 13.4 6 24.6
2008-05-28 07:32:09 51°25.33 2°53.227 4.5 13.4 5 24.7
2008-05-28 07:32:14 51°25.348 2°53.229 4 13.3 5 24.7
2008-05-28 07:32:19 51°25.367 2°53.232 3.6 13.4 6 24.7
2008-05-28 07:32:24 51°25.385 2°53.235 3.7 13.4 5 24.6
2008-05-28 07:32:29 51°25.404 2°53.237 3.4 13.3 5 24.6
2008-05-28 07:32:34 51°25.422 2°53.24 3.3 13.4 5 24.7
2008-05-28 07:32:39 51°25.441 2°53.243 3.3 13.4 5 24.8
2008-05-28 07:32:44 51°25.459 2°53.245 3.1 13.5 5 25
2008-05-28 07:32:49 51°25.478 2°53.248 3.5 13.5 5 25.3
2008-05-28 07:32:54 51°25.497 2°53.251 3.3 13.6 5 25.5
2008-05-28 07:33:00 51°25.519 2°53.254 3.4 13.6 5 25.5
2008-05-28 07:33:04 51°25.533 2°53.256 3.5 13.5 5 25.3
2008-05-28 07:33:09 51°25.552 2°53.259 3.6 13.5 5 25.1
2008-05-28 07:33:14 51°25.571 2°53.262 3.4 13.6 5 25.2
2008-05-28 07:33:19 51°25.589 2°53.264 3.4 13.5 5 25.3
2008-05-28 07:33:24 51°25.608 2°53.267 3.5 13.5 5 25.8
2008-05-28 07:33:29 51°25.626 2°53.269 2.8 13.4 4 26
2008-05-28 07:33:34 51°25.645 2°53.271 2.3 13.3 4 26.1
2008-05-28 07:33:39 51°25.663 2°53.272 1.6 13.3 3 26.3
2008-05-28 07:33:44 51°25.682 2°53.274 1.2 13.4 4 26.6
2008-05-28 07:33:49 51°25.7 2°53.275 0.6 13.3 3 26.9
2008-05-28 07:33:54 51°25.719 2°53.277 0.7 13.3 3 27.1
2008-05-28 07:33:59 51°25.737 2°53.279 1.3 13.3 3 27.7
2008-05-28 07:34:04 51°25.755 2°53.28 0.7 13.3 3 27.7
2008-05-28 07:34:09 51°25.774 2°53.281 0.9 13.3 3 27.8
2008-05-28 07:34:14 51°25.792 2°53.283 0.8 13.3 3 27.6
2008-05-28 07:34:19 51°25.811 2°53.286 1.4 13.4 5 27.7
2008-05-28 07:34:24 51°25.829 2°53.287 1.8 13.5 3 27.8
2008-05-28 07:34:29 51°25.848 2°53.291 1.8 13.5 5 28.3
2008-05-28 07:34:34 51°25.867 2°53.293 2.4 13.5 4 28.9
2008-05-28 07:34:39 51°25.885 2°53.296 2.8 13.6 6 29.5
2008-05-28 07:34:44 51°25.904 2°53.299 3.3 13.6 5 29.6
2008-05-28 07:34:49 51°25.923 2°53.303 3.4 13.7 7 29.6
2008-05-28 07:34:54 51°25.942 2°53.305 3.5 13.6 5 29.8
2008-05-28 07:34:59 51°25.961 2°53.309 3.5 13.6 6 30
2008-05-28 07:35:04 51°25.979 2°53.311 3.3 13.5 5 30.4
2008-05-28 07:35:09 51°25.998 2°53.314 3.3 13.5 5 31.1
2008-05-28 07:35:15 51°26.021 2°53.317 2.6 13.5 5 31.3
2008-05-28 07:35:19 51°26.035 2°53.318 1.7 13.4 4 31.2
2008-05-28 07:35:24 51°26.054 2°53.32 1.3 13.4 3 31.3
2008-05-28 07:35:29 51°26.073 2°53.322 0.7 13.4 4 31.2
2008-05-28 07:35:34 51°26.091 2°53.324 1.3 13.4 4 31.2
2008-05-28 07:35:40 51°26.114 2°53.327 1.5 13.4 4 31.1
2008-05-28 07:35:44 51°26.129 2°53.329 2.1 13.5 4 31.6
2008-05-28 07:35:49 51°26.147 2°53.331 1.7 13.5 4 32.1
2008-05-28 07:35:54 51°26.166 2°53.333 2.1 13.4 5 32.1
2008-05-28 07:35:59 51°26.184 2°53.334 1.6 13.5 3 32.3
2008-05-28 07:36:04 51°26.203 2°53.335 1.2 13.5 3 32.8
2008-05-28 07:36:09 51°26.222 2°53.336 0.4 13.4 2 32.9
2008-05-28 07:36:14 51°26.241 2°53.338 0.1 13.5 4 33
2008-05-28 07:36:19 51°26.259 2°53.34 1.1 13.4 4 32.9
2008-05-28 07:36:24 51°26.278 2°53.343 1.8 13.4 5 32.9
2008-05-28 07:36:29 51°26.296 2°53.344 2 13.4 3 32.9
2008-05-28 07:36:34 51°26.315 2°53.346 1.4 13.5 3 32.8
2008-05-28 07:36:39 51°26.334 2°53.348 0.8 13.6 4 32.8
2008-05-28 07:36:44 51°26.352 2°53.349 1.1 13.4 3 33
2008-05-28 07:36:49 51°26.371 2°53.351 0.9 13.3 4 32.8
2008-05-28 07:36:54 51°26.389 2°53.353 1.3 13.1 4 32.6
2008-05-28 07:36:59 51°26.407 2°53.356 1.5 13.2 4 32.7
2008-05-28 07:37:04 51°26.425 2°53.359 1.8 13.2 6 33.1
2008-05-28 07:37:09 51°26.444 2°53.361 2.3 13.2 3 32.6
2008-05-28 07:37:14 51°26.462 2°53.364 2.3 13.3 6 32.3
2008-05-28 07:37:19 51°26.481 2°53.366 2.6 13.4 4 32.5
2008-05-28 07:37:24 51°26.499 2°53.368 2.2 13.4 4 32.5
2008-05-28 07:37:29 51°26.518 2°53.37 2 13.4 3 32.5
2008-05-28 07:37:34 51°26.537 2°53.372 1.7 13.4 4 32.7
2008-05-28 07:37:40 51°26.559 2°53.375 1.4 13.4 4 32.7
2008-05-28 07:37:44 51°26.574 2°53.377 1.7 13.4 5 33.1
2008-05-28 07:37:49 51°26.592 2°53.379 2.6 13.3 4 32.9
2008-05-28 07:37:54 51°26.61 2°53.382 2.7 13.3 5 32.8
2008-05-28 07:37:59 51°26.629 2°53.384 2.8 13.3 5 32.7
2008-05-28 07:38:04 51°26.647 2°53.387 3.3 13.4 5 32.6
2008-05-28 07:38:09 51°26.666 2°53.39 3.1 13.4 5 32.7
2008-05-28 07:38:14 51°26.684 2°53.392 3.2 13.5 5 32.3
2008-05-28 07:38:19 51°26.703 2°53.395 3.2 13.4 5 32
2008-05-28 07:38:24 51°26.721 2°53.397 3.4 13.2 5 31.5
2008-05-28 07:38:29 51°26.739 2°53.4 3.7 13.3 5 30.9
2008-05-28 07:38:34 51°26.758 2°53.403 3.4 13.3 5 30.6
2008-05-28 07:38:39 51°26.777 2°53.406 3.1 13.4 6 30.1
2008-05-28 07:38:44 51°26.795 2°53.408 3.3 13.4 5 29.8
2008-05-28 07:38:49 51°26.813 2°53.411 3.3 13.4 5 29.5
2008-05-28 07:38:54 51°26.832 2°53.413 3.1 13.5 5 29.4
2008-05-28 07:38:59 51°26.851 2°53.415 2.7 13.4 4 29.5
2008-05-28 07:39:04 51°26.869 2°53.417 2.3 13.4 4 29.4
2008-05-28 07:39:09 51°26.888 2°53.419 1.9 13.4 4 29.5
2008-05-28 07:39:14 51°26.906 2°53.42 1.1 13.4 3 29.6
2008-05-28 07:39:19 51°26.925 2°53.422 1.2 13.4 4 29.7
2008-05-28 07:39:24 51°26.943 2°53.423 0.8 13.3 2 29.4
2008-05-28 07:39:29 51°26.962 2°53.426 0.7 13.4 4 29.5
2008-05-28 07:39:34 51°26.981 2°53.427 0.8 13.4 3 29.7
2008-05-28 07:39:40 51°27.002 2°53.429 0.8 13.3 4 29.5
2008-05-28 07:39:44 51°27.017 2°53.43 1 13.3 3 29.3
2008-05-28 07:39:49 51°27.036 2°53.433 1.2 13.3 4 29.7
2008-05-28 07:39:55 51°27.058 2°53.435 1.7 13.4 4 29.7
2008-05-28 07:39:59 51°27.072 2°53.437 1.9 13.4 4 29.9
2008-05-28 07:40:04 51°27.091 2°53.439 2.1 13.4 5 29.7
2008-05-28 07:40:09 51°27.109 2°53.442 2.1 13.3 5 28.4
2008-05-28 07:40:14 51°27.128 2°53.445 2.8 13.5 5 29.6
2008-05-28 07:40:20 51°27.15 2°53.448 2.7 13.5 6 29.3
2008-05-28 07:40:24 51°27.165 2°53.451 3.5 13.3 6 29.1
2008-05-28 07:40:29 51°27.183 2°53.453 3.6 13.3 5 28.9
2008-05-28 07:40:34 51°27.201 2°53.456 2.9 13.4 5 27.8
2008-05-28 07:40:39 51°27.22 2°53.459 2.4 13.4 5 27.8
2008-05-28 07:40:44 51°27.239 2°53.461 2.7 13.4 5 27
2008-05-28 07:40:49 51°27.257 2°53.464 3 13.5 6 28.4
2008-05-28 07:40:54 51°27.276 2°53.467 3.3 13.3 5 28.7
2008-05-28 07:40:59 51°27.294 2°53.47 2.6 13.3 5 26.7
2008-05-28 07:41:04 51°27.313 2°53.472 2.5 13.4 4 29
2008-05-28 07:41:09 51°27.331 2°53.475 1.7 13.4 5 29.3
2008-05-28 07:41:14 51°27.35 2°53.477 1.9 13.5 5 29.4
2008-05-28 07:41:19 51°27.369 2°53.479 1.4 13.4 4 29.1
2008-05-28 07:41:24 51°27.387 2°53.481 1 13.5 4 27.5
2008-05-28 07:41:29 51°27.406 2°53.483 1.1 13.6 4 25.9
2008-05-28 07:41:34 51°27.425 2°53.486 1.2 13.5 5 24.9
2008-05-28 07:41:39 51°27.443 2°53.488 1.4 13.4 4 27
2008-05-28 07:41:44 51°27.462 2°53.49 1.4 13.5 4 27.1
2008-05-28 07:41:49 51°27.481 2°53.493 1.8 13.5 6 27.1
2008-05-28 07:41:55 51°27.503 2°53.496 2.5 13.6 5 26.4
2008-05-28 07:41:59 51°27.518 2°53.499 2.9 13.7 6 24.7
2008-05-28 07:42:04 51°27.537 2°53.501 3.3 13.6 4 24.3
2008-05-28 07:42:09 51°27.556 2°53.504 2.7 13.5 5 22.4
2008-05-28 07:42:14 51°27.574 2°53.506 2.4 13.4 4 23.9
2008-05-28 07:42:20 51°27.597 2°53.509 1.7 13.4 4 23.8
2008-05-28 07:42:24 51°27.612 2°53.51 1.1 13.5 4 24.3
2008-05-28 07:42:29 51°27.63 2°53.512 1.2 13.5 4 24.2
2008-05-28 07:42:34 51°27.649 2°53.514 1 13.5 3 22.8
2008-05-28 07:42:39 51°27.668 2°53.516 1.1 13.5 4 23.7
2008-05-28 07:42:44 51°27.687 2°53.517 0.9 13.4 2 23.2
2008-05-28 07:42:49 51°27.705 2°53.519 0.6 13.4 4 22.1
2008-05-28 07:42:54 51°27.724 2°53.522 1.1 13.5 4 21.3
2008-05-28 07:42:59 51°27.742 2°53.523 1.5 13.4 4 22.6
2008-05-28 07:43:04 51°27.761 2°53.526 1.5 13.5 5 23.4
2008-05-28 07:43:09 51°27.779 2°53.528 1.4 13.4 3 23.2
2008-05-28 07:43:14 51°27.798 2°53.53 1 13.3 4 21.4
2008-05-28 07:43:19 51°27.816 2°53.532 1.3 13.4 4 20.9
2008-05-28 07:43:24 51°27.835 2°53.534 1.2 13.4 4 22.2
2008-05-28 07:43:29 51°27.853 2°53.537 1.4 13.5 5 22.9
2008-05-28 07:43:34 51°27.872 2°53.539 2.1 13.4 5 23.4
2008-05-28 07:43:39 51°27.89 2°53.542 2.3 13.4 5 22.7
2008-05-28 07:43:44 51°27.909 2°53.544 2.1 13.2 4 22
2008-05-28 07:43:49 51°27.927 2°53.547 1.6 13.1 5 23
2008-05-28 07:43:54 51°27.945 2°53.549 1.8 13.1 5 23.1
2008-05-28 07:43:59 51°27.963 2°53.551 1.7 13.2 4 23.4
2008-05-28 07:44:04 51°27.981 2°53.553 1.9 13.2 5 21.9
2008-05-28 07:44:09 51°28 2°53.556 1.7 13.2 5 22.3
2008-05-28 07:44:14 51°28.018 2°53.559 2.1 13.2 5 22.4
2008-05-28 07:44:20 51°28.04 2°53.562 2 13.3 4 22.5
2008-05-28 07:44:24 51°28.055 2°53.564 2.1 13.3 5 19.6
2008-05-28 07:44:29 51°28.074 2°53.566 2.1 13.4 5 21.5
2008-05-28 07:44:34 51°28.092 2°53.569 2.2 13.4 6 21.8
2008-05-28 07:44:39 51°28.111 2°53.573 2.9 13.5 7 21.1
2008-05-28 07:44:44 51°28.13 2°53.576 3.5 13.5 7 21.7
2008-05-28 07:44:49 51°28.148 2°53.58 3.8 13.6 6 22.3
2008-05-28 07:44:54 51°28.167 2°53.583 3.4 13.4 6 21.9
2008-05-28 07:44:59 51°28.185 2°53.586 3.4 13.5 7 22.4
2008-05-28 07:45:04 51°28.204 2°53.59 3.6 13.6 7 22.5
2008-05-28 07:45:09 51°28.223 2°53.594 4.1 13.4 7 23
2008-05-28 07:45:14 51°28.241 2°53.597 4.1 13.2 7 23.3
2008-05-28 07:45:19 51°28.259 2°53.601 4 13.3 7 23.6
2008-05-28 07:45:24 51°28.278 2°53.604 3.5 13.4 6 22.6
2008-05-28 07:45:29 51°28.296 2°53.608 3.4 13.5 7 23.1
2008-05-28 07:45:34 51°28.315 2°53.61 3.4 13.4 6 23.7
2008-05-28 07:45:39 51°28.334 2°53.614 3.3 13.5 6 23.6
2008-05-28 07:45:44 51°28.352 2°53.617 3 13.4 5 23.5
2008-05-28 07:45:49 51°28.371 2°53.619 2.8 13.5 6 23.9
2008-05-28 07:45:54 51°28.389 2°53.622 2.3 13.5 5 24
2008-05-28 07:45:59 51°28.408 2°53.624 2.1 13.5 5 24.1
2008-05-28 07:46:04 51°28.427 2°53.626 1.6 13.5 3 24.8
2008-05-28 07:46:09 51°28.445 2°53.629 0.8 13.5 5 23.3
2008-05-28 07:46:14 51°28.464 2°53.631 1.5 13.5 5 23.3
2008-05-28 07:46:19 51°28.482 2°53.633 1.8 13.4 5 23.6
2008-05-28 07:46:24 51°28.501 2°53.636 2.1 13.4 5 24
2008-05-28 07:46:29 51°28.52 2°53.639 2.3 13.4 5 24.7
2008-05-28 07:46:35 51°28.542 2°53.642 2.6 13.3 6 24.8
2008-05-28 07:46:39 51°28.557 2°53.644 2.8 13.4 5 25.3
2008-05-28 07:46:44 51°28.575 2°53.647 2.6 13.2 5 25.7
2008-05-28 07:46:49 51°28.593 2°53.649 2.6 13.2 4 25.9
2008-05-28 07:46:54 51°28.611 2°53.651 1.7 13.3 4 26
2008-05-28 07:46:59 51°28.63 2°53.653 1.3 13.3 3 26
2008-05-28 07:47:04 51°28.648 2°53.655 1 13.4 4 26.3
2008-05-28 07:47:09 51°28.667 2°53.656 0.6 13.2 2 26.5
2008-05-28 07:47:14 51°28.685 2°53.658 0.5 13.2 4 26.3
2008-05-28 07:47:19 51°28.703 2°53.66 0.9 13.2 3 26.4
2008-05-28 07:47:24 51°28.721 2°53.662 0.9 13.3 4 26.6
2008-05-28 07:47:29 51°28.74 2°53.664 1.7 13.2 4 26.5
2008-05-28 07:47:34 51°28.758 2°53.666 1.4 13.2 3 26.5
2008-05-28 07:47:39 51°28.776 2°53.668 0.9 13.2 3 26.8
2008-05-28 07:47:44 51°28.795 2°53.669 0.2 13.3 3 26.8
2008-05-28 07:47:49 51°28.813 2°53.67 0.6 13.4 3 27.2
2008-05-28 07:47:54 51°28.832 2°53.672 0.4 13.3 3 27.2
2008-05-28 07:47:59 51°28.85 2°53.675 1.4 13.4 4 27.3
2008-05-28 07:48:04 51°28.869 2°53.676 1.7 13.4 3 27.5
2008-05-28 07:48:09 51°28.887 2°53.678 1.1 13.4 4 27.5
2008-05-28 07:48:14 51°28.906 2°53.679 0.9 13.1 2 27.5
2008-05-28 07:48:19 51°28.924 2°53.681 0.6 13.1 3 27.5
2008-05-28 07:48:24 51°28.942 2°53.682 359.8 13.1 2 27.9
2008-05-28 07:48:29 51°28.96 2°53.683 -999 13.2 3 28
2008-05-28 07:48:34 51°28.979 2°53.685 -999 13.2 3 28.3
2008-05-28 07:48:39 51°28.997 2°53.686 0.1 13.2 3 28.3
2008-05-28 07:48:44 51°29.015 2°53.688 0.4 13.3 3 28.4
2008-05-28 07:48:49 51°29.034 2°53.689 0.2 13.3 2 28.6
2008-05-28 07:48:54 51°29.052 2°53.691 359.9 13.3 3 28.6
2008-05-28 07:49:00 51°29.074 2°53.693 -999 13.3 3 28.9
2008-05-28 07:49:04 51°29.089 2°53.695 0.7 13.4 5 29.1
2008-05-28 07:49:09 51°29.108 2°53.696 0.7 13.5 3 29.2
2008-05-28 07:49:14 51°29.126 2°53.698 0.5 13.4 4 29.3
2008-05-28 07:49:19 51°29.145 2°53.699 0.4 13.3 2 29.3
2008-05-28 07:49:24 51°29.163 2°53.701 359.9 13.4 3 29.5
2008-05-28 07:49:29 51°29.182 2°53.702 359.6 13.5 3 29.6
2008-05-28 07:49:34 51°29.2 2°53.704 359.6 13.4 3 29.9
2008-05-28 07:49:39 51°29.219 2°53.706 359.9 13.3 3 30.1
2008-05-28 07:49:44 51°29.237 2°53.708 0.4 13.4 4 30
2008-05-28 07:49:49 51°29.256 2°53.71 0.4 13.5 3 30.2
2008-05-28 07:49:54 51°29.274 2°53.712 0.1 13.5 4 30.2
2008-05-28 07:49:59 51°29.293 2°53.714 0.6 13.4 3 30.2
2008-05-28 07:50:04 51°29.311 2°53.716 0.4 13.4 5 30.2
2008-05-28 07:50:09 51°29.33 2°53.718 0.7 13.4 3 30.3
2008-05-28 07:50:14 51°29.348 2°53.72 0.1 13.3 3 30.4
2008-05-28 07:50:19 51°29.367 2°53.721 359.5 13.3 3 30.5
2008-05-28 07:50:24 51°29.386 2°53.722 358.9 13.5 3 30.6
2008-05-28 07:50:29 51°29.404 2°53.724 359.1 13.3 3 30.8
2008-05-28 07:50:34 51°29.423 2°53.725 359.2 13.3 3 31
2008-05-28 07:50:39 51°29.441 2°53.727 -999 13.3 4 30.9
2008-05-28 07:50:44 51°29.459 2°53.729 0.4 13.4 3 30.9
2008-05-28 07:50:49 51°29.478 2°53.731 -999 13.2 4 31.1
2008-05-28 07:50:54 51°29.496 2°53.732 0.1 13.3 3 31
2008-05-28 07:51:00 51°29.518 2°53.736 0.2 13.3 5 31.6
2008-05-28 07:51:04 51°29.533 2°53.738 0.8 13.2 4 31.5